CYUL/YUL METAR and TAF weather

Enter ICAO airport designator
Station Type Date Time Source
CYUL METAR 2019/09/21 05:00 UTC NOAA

CYUL 210500Z 23008KT 15SM BKN050 BKN070 18/15 A3014 RMK SC5AC1 SLP209 DENSITY ALT 300FT


Station Type Date Time Source
CYUL Decoded METAR 2019/09/21 05:00 UTC NOAA

Montreal / Pierre Elliot Trudeau International Airport, Que, Canada (CYUL) 45-28N 073-45W 36M
Sep 21, 2019 - 01:00 AM EDT / 2019.09.21 0500 UTC
Wind: from the SW (230 degrees) at 9 MPH (8 KT):0
Visibility: 15 mile(s):0
Sky conditions: mostly cloudy
Temperature: 64 F (18 C)
Dew Point: 59 F (15 C)
Relative Humidity: 82%
Pressure (altimeter): 30.14 in. Hg (1020 hPa)
ob: CYUL 210500Z 23008KT 15SM BKN050 BKN070 18/15 A3014 RMK SC5AC1 SLP209 DENSITY ALT 300FT
cycle: 5

Station Type Date Time Source
CYUL TAF 2019/09/21 06:40 UTC NOAA

TAF CYUL 210538Z 2106/2206 23008KT P6SM SCT050
FM210900 28005KT P6SM SCT040
BECMG 2113/2115 21010KT
FM211800 21010KT P6SM SKC
BECMG 2122/2124 18005KT
RMK NXT FCST BY 210900Z

Example: see airport list